Aérodrome :
LOGIN :

S'inscrire | Disclaimer

   EN    FR    IT 

 










Légende :    VFR   VFR Marginal   IFR   IFR Intensif   IFR Très Intensif
Visi : 
Plafond : 
>= 8 km
>= 3000ft
5 à 8 km
1000 à 3000 ft
1500m à 5 km
500 à 1000 ft
800 à 1500m
200 à 500 ft
< 800m
< 200 ft
Symboles :   Orages  Brouillard  Fortes neiges  Fortes précipitations  Vent > 20 kt
SIGMETs :   Divers  Orages  Givrage  Turbulence  Onde Orograph.  Cendres Volcan.






- Altitude de l'aérodrome : 202 ft
- Code IATA : LGW


EGKK - London Gatwick

DERNIER METAR :
  • 150250Z VRB03KT 6000 FEW030 03/03 Q1003

METARs EXPIRÉS :
  • 150220Z 01003KT 6000 NSC 03/03 Q1003
  • 150150Z 02004KT 4500 BR FEW004 03/03 Q1003
  • 150120Z 03004KT 4000 BR SCT004 03/03 Q1003
  • 150050Z 02006KT 8000 SCT006 04/03 Q1003
  • 150020Z 02006KT 9999 FEW048 04/04 Q1003

TAF AMD TAF EGKK
Valide du 15 à 01h jusqu'au 16 à 06h UTC


150108Z 1501/1606 07006KT 9999 FEW025
TEMPO 1501/1503 4000 BR BKN004
PROB30
TEMPO 1503/1506 3000 BR BKN004
BECMG 1506/1509 01012KT
TEMPO 1506/1510 8000 -SHRA BKN012
PROB30
TEMPO 1506/1509 4000 SHRA BKN006
TEMPO 1515/1606 8000 -RA BKN012
PROB30
TEMPO 1519/1606 4000 RA SHRA BKN008



MET'MAP, la Météo Aéronautique d'un coup d'oeil ! - Copyright ORBIFLY Décembre 2007 - Disclaimer

ORBIFLY MET'MAP TEAM :

Programmation & Développement : Alexandra Zaïnal
Conception & Développement : Baudouin d'Aumeries
Co-Programmation & Développement : Marc-Olivier Méhu
Soutien technique & logistique : Manuel Goepfert

Contact : metmap@orbifly.com




SOURCES & CREDITS :

   NOAA